Time;durP1;ratioP1;P1;durP2;ratioP2;P2;SDS_P1;SDS_P2;PMS_P1;PMS_P2;Temp;Humidity;BMP_temperature;BMP_pressure;BME280_temperature;BME280_humidity;BME280_pressure;Samples;Min_cycle;Max_cycle;Signal;HPM_P1;HPM_P2
2021/12/21 00:02:07;;;;;;;;;34.33;30.33;;;;;5.03;62.68;101759.88;5057467;28;45675;-76
2021/12/21 00:04:32;;;;;;;;;34.33;31.33;;;;;5.19;62.46;101783.25;5056489;28;45505;-76
2021/12/21 00:06:58;;;;;;;;;29.00;26.33;;;;;5.09;62.67;101781.94;5056824;28;45490;-76
2021/12/21 00:09:23;;;;;;;;;26.33;22.33;;;;;4.84;62.71;101742.47;5058102;28;45823;-76
2021/12/21 00:11:49;;;;;;;;;28.67;23.00;;;;;5.00;62.21;101759.72;5057657;28;45373;-76
2021/12/21 00:14:35;;;;;;;;;30.00;23.33;;;;;5.00;62.25;101765.84;5057760;28;47059;-76
2021/12/21 00:17:14;;;;;;;;;32.75;25.75;;;;;5.00;62.63;101763.22;5056230;28;45422;-77
2021/12/21 00:20:03;;;;;;;;;30.67;24.67;;;;;5.04;62.66;101769.50;5037420;28;45196;-77
2021/12/21 00:24:57;;;;;;;;;26.00;22.00;;;;;4.83;62.63;101738.03;5057400;28;46078;-76
2021/12/21 00:27:22;;;;;;;;;25.67;25.67;;;;;4.94;62.80;101770.78;5035358;28;45717;-76
2021/12/21 00:29:48;;;;;;;;;36.00;31.00;;;;;4.95;62.90;101769.97;5055179;28;45225;-76
2021/12/21 00:32:13;;;;;;;;;32.67;26.67;;;;;4.93;62.81;101765.47;5057753;28;45260;-73
2021/12/21 00:34:40;;;;;;;;;22.33;21.00;;;;;4.77;62.93;101735.19;5057713;28;46433;-76
2021/12/21 00:37:06;;;;;;;;;26.67;25.00;;;;;4.67;62.84;101720.81;5038849;28;45403;-77
2021/12/21 00:39:31;;;;;;;;;25.33;21.67;;;;;4.73;62.72;101743.66;5057618;28;45440;-76
2021/12/21 00:41:57;;;;;;;;;32.00;25.00;;;;;4.79;63.25;101757.00;5057363;28;45382;-75
2021/12/21 00:44:22;;;;;;;;;28.00;23.33;;;;;4.77;63.41;101753.44;5056832;28;47349;-76
2021/12/21 00:46:48;;;;;;;;;28.00;22.33;;;;;4.68;63.38;101743.47;5056659;28;45670;-74
2021/12/21 00:49:15;;;;;;;;;23.00;21.67;;;;;4.79;63.59;101767.47;5057383;28;45420;-76
2021/12/21 00:51:46;;;;;;;;;28.67;22.33;;;;;4.54;63.72;101724.53;5057248;28;45274;-77
2021/12/21 00:54:12;;;;;;;;;30.00;26.67;;;;;4.65;63.50;101752.84;5057277;28;45471;-76
2021/12/21 00:56:38;;;;;;;;;25.00;22.33;;;;;4.67;63.94;101748.63;5057287;28;45311;-76
2021/12/21 00:59:04;;;;;;;;;25.00;25.00;;;;;4.68;63.62;101761.72;5056627;28;45428;-77
2021/12/21 01:01:35;;;;;;;;;25.67;23.33;;;;;4.67;63.90;101753.84;5056449;28;45384;-76
2021/12/21 01:04:03;;;;;;;;;24.00;20.67;;;;;4.66;63.95;101750.34;5057334;28;45310;-76
2021/12/21 01:09:14;;;;;;;;;27.00;25.33;;;;;4.65;64.08;101751.13;5056902;28;45327;-76
2021/12/21 01:11:45;;;;;;;;;28.67;25.33;;;;;4.67;64.12;101749.50;5057431;28;45446;-76
2021/12/21 01:17:03;;;;;;;;;31.67;24.67;;;;;4.55;64.28;101735.84;5054250;28;45404;-76
2021/12/21 01:22:49;;;;;;;;;26.33;22.33;;;;;4.49;64.30;101739.09;4998171;28;45383;-75
2021/12/21 01:30:26;;;;;;;;;27.33;23.33;;;;;4.48;64.66;101733.81;4998074;28;45695;-74
2021/12/21 01:33:10;;;;;;;;;22.33;21.67;;;;;4.33;64.73;101714.78;4997828;28;45413;-74
2021/12/21 01:35:40;;;;;;;;;25.00;22.33;;;;;4.27;64.81;101704.94;4997616;28;46287;-74
2021/12/21 01:51:15;;;;;;;;;30.67;26.00;;;;;4.28;65.36;101728.53;4997169;28;45473;-75
2021/12/21 01:53:41;;;;;;;;;25.00;21.00;;;;;4.12;65.67;101705.13;4998299;28;45579;-76
2021/12/21 01:56:07;;;;;;;;;29.67;29.67;;;;;4.31;65.38;101745.13;4997784;28;45425;-76
2021/12/21 01:58:33;;;;;;;;;24.00;23.00;;;;;4.32;65.42;101746.91;5012875;28;45490;-75
2021/12/21 02:01:01;;;;;;;;;22.33;21.00;;;;;4.31;65.47;101748.63;5059744;28;45208;-75
2021/12/21 02:03:27;;;;;;;;;18.33;10.00;;;;;4.18;65.90;101728.88;5059235;28;45418;-74
2021/12/21 02:05:52;;;;;;;;;24.33;20.33;;;;;4.29;65.45;101747.66;5059227;28;45449;-76
2021/12/21 02:08:18;;;;;;;;;26.33;22.00;;;;;4.27;65.73;101755.41;5059341;28;45426;-75
2021/12/21 02:10:43;;;;;;;;;28.00;24.33;;;;;4.26;65.81;101739.69;5059529;28;45698;-75
2021/12/21 02:13:09;;;;;;;;;23.00;21.00;;;;;4.11;65.68;101721.59;5037621;28;45541;-73
2021/12/21 02:15:34;;;;;;;;;24.33;23.00;;;;;4.21;65.64;101747.28;5039240;28;45671;-76
2021/12/21 02:31:06;;;;;;;;;22.33;22.33;;;;;4.06;65.76;101724.78;5059437;28;45327;-76
2021/12/21 02:33:32;;;;;;;;;24.67;20.33;;;;;4.08;65.89;101725.72;5059293;28;45396;-75
2021/12/21 02:35:58;;;;;;;;;19.33;19.33;;;;;4.05;66.21;101721.28;5058316;28;46275;-76
2021/12/21 02:38:25;;;;;;;;;27.33;24.00;;;;;3.98;66.45;101714.84;5059194;28;45246;-73
2021/12/21 02:40:51;;;;;;;;;25.67;25.00;;;;;4.03;66.44;101714.19;5037635;28;45332;-76
2021/12/21 02:43:17;;;;;;;;;25.33;21.00;;;;;3.97;66.28;101709.56;5039258;28;45263;-76
2021/12/21 02:45:42;;;;;;;;;28.67;27.00;;;;;3.96;66.46;101710.38;5055814;28;45642;-76
2021/12/21 02:48:09;;;;;;;;;29.67;24.33;;;;;3.99;66.49;101703.59;5059085;28;45350;-75
2021/12/21 02:50:36;;;;;;;;;25.00;25.00;;;;;3.96;66.62;101713.88;5058286;28;45492;-76
2021/12/21 02:53:03;;;;;;;;;24.00;18.33;;;;;3.92;66.58;101705.84;5059784;28;45288;-76
2021/12/21 02:55:28;;;;;;;;;36.67;29.33;;;;;3.78;66.80;101686.00;5058661;28;45452;-76
2021/12/21 02:57:57;;;;;;;;;30.00;23.67;;;;;3.79;66.58;101683.47;5059265;28;45551;-77
2021/12/21 03:00:25;;;;;;;;;21.67;21.67;;;;;3.90;66.62;101697.03;5037401;28;45354;-77
2021/12/21 03:02:50;;;;;;;;;25.33;23.67;;;;;3.83;66.87;101689.75;5040536;28;45354;-74
2021/12/21 03:05:16;;;;;;;;;27.00;27.00;;;;;3.88;67.29;101696.06;5058178;28;45556;-76
2021/12/21 03:10:33;;;;;;;;;32.33;21.67;;;;;3.75;67.13;101670.25;5036064;28;45370;-76
2021/12/21 03:15:27;;;;;;;;;24.00;19.00;;;;;3.74;67.21;101676.28;5036196;28;45831;-75
2021/12/21 03:17:53;;;;;;;;;28.00;20.67;;;;;3.70;66.95;101676.09;5035707;28;45409;-75
2021/12/21 03:20:19;;;;;;;;;23.00;18.33;;;;;3.82;66.66;101694.06;5016299;28;45359;-76
2021/12/21 03:22:45;;;;;;;;;23.67;18.67;;;;;3.70;67.07;101677.81;5029003;28;45583;-77
2021/12/21 03:25:12;;;;;;;;;34.00;23.00;;;;;3.70;66.70;101676.09;5036145;28;46763;-77
2021/12/21 03:27:38;;;;;;;;;21.00;21.00;;;;;3.67;66.88;101669.84;5035351;28;45398;-78
2021/12/21 03:30:06;;;;;;;;;27.00;27.00;;;;;3.66;66.92;101665.47;5035707;28;45449;-76
2021/12/21 03:32:31;;;;;;;;;24.00;21.00;;;;;3.79;67.43;101693.00;5036555;28;45392;-77
2021/12/21 03:34:57;;;;;;;;;24.67;22.67;;;;;3.71;67.00;101680.47;5035598;28;46112;-76
2021/12/21 03:37:22;;;;;;;;;20.67;20.67;;;;;3.39;66.78;101629.38;5035363;28;45430;-76
2021/12/21 03:39:50;;;;;;;;;25.67;25.33;;;;;3.68;66.62;101674.25;5035672;28;45449;-77
2021/12/21 03:42:16;;;;;;;;;28.67;22.67;;;;;3.74;66.62;101682.38;5035661;28;45509;-77
2021/12/21 03:44:42;;;;;;;;;26.33;23.00;;;;;3.78;66.95;101692.13;5035657;28;45515;-76
2021/12/21 03:47:10;;;;;;;;;31.33;24.00;;;;;3.79;66.68;101693.00;5044459;28;45351;-77
2021/12/21 03:52:16;;;;;;;;;20.67;20.67;;;;;3.77;67.03;101690.34;5058050;28;45321;-77
2021/12/21 03:54:45;;;;;;;;;28.00;25.00;;;;;3.74;67.16;101689.31;5058119;28;46350;-77
2021/12/21 03:57:12;;;;;;;;;30.00;25.67;;;;;3.71;66.84;101690.91;5057684;28;45420;-77
2021/12/21 03:59:38;;;;;;;;;30.00;27.33;;;;;3.70;66.84;101694.34;5057779;28;45289;-77
2021/12/21 04:02:05;;;;;;;;;33.67;25.67;;;;;3.46;66.92;101650.53;5057968;28;45433;-77
2021/12/21 04:04:31;;;;;;;;;34.00;26.00;;;;;3.50;66.85;101660.28;5057961;28;46768;-77
2021/12/21 04:06:56;;;;;;;;;29.33;25.00;;;;;3.66;67.03;101692.41;5057851;28;45536;-77
2021/12/21 04:09:22;;;;;;;;;27.67;24.33;;;;;3.70;67.04;101698.66;5057919;28;45255;-76
2021/12/21 04:11:47;;;;;;;;;26.67;23.00;;;;;3.70;67.07;101696.03;5057316;28;45719;-77
2021/12/21 04:14:15;;;;;;;;;24.67;16.33;;;;;3.58;66.81;101670.28;5057712;28;47136;-77
2021/12/21 04:16:41;;;;;;;;;33.67;30.67;;;;;3.56;67.16;101679.72;5058146;28;45474;-77
2021/12/21 04:19:06;;;;;;;;;31.33;29.67;;;;;3.62;67.23;101693.06;5057533;28;45743;-77
2021/12/21 04:21:32;;;;;;;;;35.00;32.00;;;;;3.36;66.92;101639.66;5057734;28;45326;-75
2021/12/21 04:23:57;;;;;;;;;41.33;34.33;;;;;3.55;67.09;101674.44;5057319;28;45643;-76
2021/12/21 04:26:23;;;;;;;;;29.00;28.33;;;;;3.58;67.03;101691.13;5057320;28;45460;-76
2021/12/21 04:28:48;;;;;;;;;42.67;38.33;;;;;3.33;67.53;101643.78;5057603;28;45352;-77
2021/12/21 04:31:14;;;;;;;;;39.33;36.00;;;;;3.43;67.30;101667.78;5057639;28;45452;-77
2021/12/21 04:33:44;;;;;;;;;49.33;41.67;;;;;3.43;67.63;101661.69;5057131;28;45296;-74
2021/12/21 04:36:11;;;;;;;;;45.33;41.00;;;;;3.46;67.78;101668.78;5057509;28;45401;-76
2021/12/21 04:38:40;;;;;;;;;32.00;31.00;;;;;3.27;67.77;101636.59;5057258;28;45220;-75
2021/12/21 04:41:21;;;;;;;;;40.00;37.33;;;;;3.38;67.85;101658.84;5057665;28;45398;-76
2021/12/21 04:43:47;;;;;;;;;49.33;41.00;;;;;3.44;67.84;101671.28;5056994;28;46240;-75
2021/12/21 04:46:13;;;;;;;;;39.00;39.00;;;;;3.40;67.79;101661.53;5056955;28;45475;-75
2021/12/21 04:48:39;;;;;;;;;39.67;36.67;;;;;3.48;68.04;101675.84;5057648;28;45290;-77
2021/12/21 04:51:05;;;;;;;;;43.00;34.67;;;;;3.34;67.84;101651.69;5057241;28;45229;-76
2021/12/21 04:53:30;;;;;;;;;44.67;33.00;;;;;3.29;67.73;101652.28;5056889;28;46210;-76
2021/12/21 04:55:56;;;;;;;;;37.33;35.00;;;;;3.31;67.95;101661.94;5057108;28;45441;-77
2021/12/21 04:58:21;;;;;;;;;41.67;37.00;;;;;3.39;67.76;101673.66;5057063;28;45667;-75
2021/12/21 05:00:47;;;;;;;;;35.33;35.00;;;;;3.29;67.98;101657.50;5057137;28;45370;-77
2021/12/21 05:03:13;;;;;;;;;52.33;42.00;;;;;3.31;68.39;101661.94;5056777;28;46500;-76
2021/12/21 05:05:39;;;;;;;;;39.00;34.00;;;;;3.08;68.61;101637.34;5057161;28;45448;-76
2021/12/21 05:08:19;;;;;;;;;40.67;34.67;;;;;3.24;68.62;101659.84;5056933;28;45291;-77
2021/12/21 05:10:48;;;;;;;;;40.33;36.00;;;;;3.28;68.14;101676.53;5057489;28;45223;-75
2021/12/21 05:13:15;;;;;;;;;40.00;29.67;;;;;3.22;68.30;101666.69;5056358;28;45801;-73
2021/12/21 05:15:42;;;;;;;;;34.33;29.00;;;;;3.17;68.83;101667.28;5056775;28;45279;-75
2021/12/21 05:18:09;;;;;;;;;38.67;30.00;;;;;3.20;68.78;101677.84;5039090;28;45348;-73
2021/12/21 05:20:35;;;;;;;;;29.33;26.00;;;;;3.11;68.20;101667.84;5057025;28;45242;-75
2021/12/21 05:23:01;;;;;;;;;36.67;33.67;;;;;3.12;68.22;101682.66;5055985;28;46096;-75
2021/12/21 05:25:26;;;;;;;;;33.00;30.00;;;;;3.08;68.51;101670.28;5038567;28;46004;-75
2021/12/21 05:27:52;;;;;;;;;25.33;25.00;;;;;3.04;68.60;101668.31;5057058;28;45855;-75
2021/12/21 05:30:17;;;;;;;;;27.33;23.33;;;;;2.92;68.52;101655.56;5056330;28;45297;-75
2021/12/21 05:32:43;;;;;;;;;28.67;23.33;;;;;3.05;68.50;101676.22;5055975;28;46491;-74
2021/12/21 05:35:09;;;;;;;;;23.33;22.00;;;;;2.96;69.21;101662.72;5055991;28;45448;-75
2021/12/21 05:37:37;;;;;;;;;25.67;21.00;;;;;3.04;68.56;101677.03;5056619;28;45384;-75
2021/12/21 05:42:35;;;;;;;;;25.00;23.00;;;;;2.97;68.86;101674.91;5056194;28;45405;-76
2021/12/21 05:45:02;;;;;;;;;16.67;15.33;;;;;3.00;69.46;101672.50;5056070;28;45595;-74
2021/12/21 05:47:28;;;;;;;;;19.67;19.00;;;;;2.98;69.11;101663.72;5056625;28;45313;-75
2021/12/21 05:49:53;;;;;;;;;26.67;24.33;;;;;2.99;69.26;101669.81;5056800;28;45418;-74
2021/12/21 05:52:18;;;;;;;;;23.33;20.00;;;;;3.07;68.69;101686.69;5056460;28;46169;-75
2021/12/21 05:54:44;;;;;;;;;29.00;23.00;;;;;3.05;69.02;101681.41;5055756;28;45433;-74
2021/12/21 05:57:09;;;;;;;;;22.00;16.00;;;;;3.06;68.68;101679.72;5056808;28;45259;-75
2021/12/21 05:59:35;;;;;;;;;24.33;21.67;;;;;2.99;69.02;101668.09;5056414;28;45469;-75
2021/12/21 06:02:00;;;;;;;;;18.00;16.00;;;;;2.83;68.53;101640.38;5056285;28;46211;-76
2021/12/21 06:04:26;;;;;;;;;21.33;16.00;;;;;2.97;68.70;101663.59;5059043;28;45168;-74
2021/12/21 06:06:51;;;;;;;;;16.67;16.67;;;;;2.98;68.91;101676.72;5060069;28;45177;-75
2021/12/21 06:09:17;;;;;;;;;17.33;16.67;;;;;3.02;69.02;101681.25;5059968;28;45283;-76
2021/12/21 06:12:11;;;;;;;;;19.67;19.67;;;;;2.99;68.77;101680.22;5059123;28;45480;-75
2021/12/21 06:23:12;;;;;;;;;19.33;14.33;;;;;2.95;68.88;101692.16;5059493;28;45712;-76
2021/12/21 06:27:56;;;;;;;;;30.00;22.00;;;;;2.93;68.62;101683.38;5037747;28;45304;-74
2021/12/21 06:30:21;;;;;;;;;18.67;15.67;;;;;2.86;69.48;101673.44;5039346;28;45535;-76
2021/12/21 06:32:47;;;;;;;;;22.33;19.00;;;;;2.94;69.11;101697.28;5039072;28;45511;-76
2021/12/21 06:35:13;;;;;;;;;20.67;18.67;;;;;2.95;69.35;101689.56;5055151;28;45484;-75
2021/12/21 06:37:38;;;;;;;;;18.67;17.33;;;;;2.86;69.54;101678.66;5058977;28;45373;-74
2021/12/21 06:40:04;;;;;;;;;21.00;18.00;;;;;2.90;69.31;101682.34;5059569;28;45283;-76
2021/12/21 06:42:30;;;;;;;;;20.00;19.00;;;;;2.79;69.10;101669.66;5059565;28;45497;-76
2021/12/21 06:44:59;;;;;;;;;16.33;16.33;;;;;2.88;69.04;101681.34;5058801;28;46222;-75
2021/12/21 06:52:54;;;;;;;;;20.67;20.00;;;;;2.80;69.40;101665.34;5059107;28;45401;-73
2021/12/21 06:55:19;;;;;;;;;18.00;18.00;;;;;2.79;69.25;101661.84;5058142;28;45562;-76
2021/12/21 06:57:48;;;;;;;;;21.33;18.00;;;;;2.83;69.46;101674.19;5059294;28;45275;-75
2021/12/21 07:00:15;;;;;;;;;27.00;17.33;;;;;2.55;69.41;101622.41;5059034;28;45408;-76
2021/12/21 07:02:41;;;;;;;;;20.67;19.00;;;;;2.78;69.24;101669.53;5058348;28;45374;-76
2021/12/21 07:05:08;;;;;;;;;18.00;15.33;;;;;2.77;69.81;101666.03;5057814;28;45479;-75
2021/12/21 07:07:34;;;;;;;;;22.00;21.33;;;;;2.83;69.76;101689.81;5060284;28;45580;-75
2021/12/21 07:10:03;;;;;;;;;17.33;17.33;;;;;2.82;69.55;101677.59;5079002;28;45411;-76
2021/12/21 07:20:25;;;;;;;;;20.67;16.00;;;;;2.69;69.64;101661.25;5058349;28;45409;-74
2021/12/21 07:22:50;;;;;;;;;20.33;20.33;;;;;2.73;69.64;101673.63;5058321;28;46356;-73
2021/12/21 07:25:16;;;;;;;;;18.67;16.00;;;;;2.48;69.88;101632.38;5073941;28;45309;-75
2021/12/21 07:27:41;;;;;;;;;16.67;16.33;;;;;2.62;69.63;101660.03;5065347;28;45372;-75
2021/12/21 07:30:07;;;;;;;;;21.00;18.00;;;;;2.50;69.26;101649.84;5057878;28;45329;-77
2021/12/21 07:32:34;;;;;;;;;19.00;16.00;;;;;2.67;69.36;101678.47;5058034;28;46396;-76
2021/12/21 07:34:59;;;;;;;;;22.33;18.00;;;;;2.48;69.51;101663.59;5057717;28;45507;-73
2021/12/21 07:37:25;;;;;;;;;20.67;17.33;;;;;2.48;69.33;101663.59;5037085;28;45378;-75
2021/12/21 07:39:51;;;;;;;;;19.00;16.00;;;;;2.58;69.78;101690.16;5059890;28;45255;-75
2021/12/21 07:42:17;;;;;;;;;18.67;18.00;;;;;2.59;69.42;101693.66;5052408;28;46182;-74
2021/12/21 07:44:43;;;;;;;;;19.67;18.33;;;;;2.43;69.73;101670.25;5056995;28;45181;-76
2021/12/21 07:47:08;;;;;;;;;19.00;16.33;;;;;2.62;69.75;101701.66;5066737;28;45366;-75
2021/12/21 07:49:34;;;;;;;;;23.33;19.00;;;;;2.37;69.70;101656.91;5058278;28;45215;-76
2021/12/21 07:51:59;;;;;;;;;15.33;15.33;;;;;2.54;69.34;101682.13;5039390;28;47730;-77
2021/12/21 07:54:25;;;;;;;;;18.67;18.67;;;;;2.54;69.41;101677.81;5061421;28;45309;-84
2021/12/21 07:56:50;;;;;;;;;20.33;15.00;;;;;2.60;69.33;101694.56;5041158;28;45539;-81
2021/12/21 07:59:16;;;;;;;;;23.67;16.00;;;;;2.18;69.13;101621.22;5065309;28;45614;-80
2021/12/21 08:01:42;;;;;;;;;21.00;19.33;;;;;2.62;69.23;101700.75;5060742;28;45584;-83
2021/12/21 08:04:08;;;;;;;;;21.33;17.33;;;;;2.65;69.01;101696.63;5064767;28;45550;-79
2021/12/21 08:06:35;;;;;;;;;17.33;17.33;;;;;2.70;69.09;101707.25;5066758;28;45546;-79
2021/12/21 08:09:02;;;;;;;;;21.00;16.67;;;;;2.55;69.47;101677.00;5045671;28;45454;-78
2021/12/21 08:13:54;;;;;;;;;26.33;24.33;;;;;2.75;69.16;101711.91;5062552;28;45343;-77
2021/12/21 08:16:20;;;;;;;;;21.00;18.33;;;;;2.68;68.67;101693.28;5057521;28;46326;-82
2021/12/21 08:18:46;;;;;;;;;21.33;20.33;;;;;2.38;68.64;101649.19;5048136;28;45449;-79
2021/12/21 08:21:17;;;;;;;;;19.33;19.33;;;;;2.54;69.05;101680.44;5059768;28;46095;-83
2021/12/21 08:23:43;;;;;;;;;24.33;19.33;;;;;2.57;68.72;101687.50;5059937;28;45242;-78
2021/12/21 08:26:08;;;;;;;;;22.00;19.67;;;;;2.70;68.79;101702.97;5061011;28;45494;-76
2021/12/21 08:28:34;;;;;;;;;21.33;20.00;;;;;2.69;68.96;101693.34;5062872;28;45477;-75
2021/12/21 08:30:59;;;;;;;;;21.67;21.67;;;;;2.70;68.64;101689.97;5062721;28;45428;-78
2021/12/21 08:33:25;;;;;;;;;13.67;11.00;;;;;2.52;68.77;101650.84;5062985;28;45642;-79
2021/12/21 08:35:50;;;;;;;;;27.67;21.33;;;;;2.55;68.43;101655.31;5065402;28;45435;-80
2021/12/21 08:38:18;;;;;;;;;19.00;18.00;;;;;2.11;68.51;101565.38;5063642;28;45502;-79
2021/12/21 08:40:49;;;;;;;;;20.67;19.00;;;;;2.75;68.46;101670.28;5061679;28;45441;-78
2021/12/21 08:43:20;;;;;;;;;21.67;18.00;;;;;2.80;68.06;101674.03;5044784;28;45474;-82
2021/12/21 08:45:48;;;;;;;;;22.33;20.33;;;;;3.01;67.91;101713.31;5059522;28;45537;-78
2021/12/21 08:48:15;;;;;;;;;23.00;22.00;;;;;2.72;67.69;101662.31;5064502;28;45495;-80
2021/12/21 08:50:41;;;;;;;;;26.00;18.67;;;;;2.91;67.65;101685.00;5061136;28;45662;-79
2021/12/21 08:53:07;;;;;;;;;22.33;22.33;;;;;2.84;67.61;101668.16;5062749;28;45436;-79
2021/12/21 08:55:32;;;;;;;;;26.33;24.00;;;;;2.60;68.02;101619.13;5062596;28;45800;-79
2021/12/21 08:57:58;;;;;;;;;26.00;23.00;;;;;3.13;67.85;101705.25;5067484;28;45556;-78
2021/12/21 09:00:24;;;;;;;;;26.00;21.33;;;;;3.15;67.67;101712.31;5048871;28;46105;-78
2021/12/21 09:02:50;;;;;;;;;27.67;25.33;;;;;2.71;67.23;101646.63;5066291;28;45461;-79
2021/12/21 09:05:21;;;;;;;;;29.67;20.67;;;;;2.97;67.14;101684.44;5068902;28;46537;-76
2021/12/21 09:07:48;;;;;;;;;26.00;20.67;;;;;2.55;67.02;101609.38;5061350;28;45503;-75
2021/12/21 09:10:16;;;;;;;;;17.67;15.67;;;;;2.52;66.72;101593.63;5062881;28;45624;-76
2021/12/21 09:12:41;;;;;;;;;20.33;18.00;;;;;2.67;67.11;101621.25;5062330;28;45517;-77
2021/12/21 09:15:09;;;;;;;;;32.67;21.67;;;;;2.79;66.41;101633.22;5062901;28;45302;-78
2021/12/21 09:17:35;;;;;;;;;27.00;24.00;;;;;3.11;66.36;101699.97;5066168;28;45587;-77
2021/12/21 09:20:01;;;;;;;;;26.00;23.00;;;;;3.33;66.40;101719.31;5066502;28;46430;-73
2021/12/21 09:22:26;;;;;;;;;22.33;22.00;;;;;3.10;66.24;101669.56;5068155;28;45430;-78
2021/12/21 09:24:52;;;;;;;;;26.33;25.33;;;;;3.12;65.74;101654.00;5063559;28;45482;-77
2021/12/21 09:27:18;;;;;;;;;22.33;20.00;;;;;3.96;64.71;101733.84;5062848;28;45628;-78
2021/12/21 09:29:45;;;;;;;;;20.67;19.33;;;;;6.06;59.42;101647.63;5064733;28;46152;-77
2021/12/21 09:32:13;;;;;;;;;21.00;20.00;;;;;10.00;50.96;101711.34;5064961;28;45469;-75
2021/12/21 09:34:42;;;;;;;;;24.33;21.00;;;;;12.66;43.99;101699.09;5064297;28;45903;-77
2021/12/21 09:37:14;;;;;;;;;24.00;21.00;;;;;14.16;39.80;101648.69;5065037;28;45450;-75
2021/12/21 09:39:43;;;;;;;;;34.75;26.50;;;;;15.39;37.00;101594.44;5066704;28;45577;-78
2021/12/21 09:42:14;;;;;;;;;25.00;23.25;;;;;16.85;34.74;101616.44;5068848;28;45516;-76
2021/12/21 09:44:40;;;;;;;;;24.50;21.75;;;;;18.19;32.18;101669.72;5067543;28;45463;-78
2021/12/21 09:47:09;;;;;;;;;27.50;21.75;;;;;19.13;30.76;101707.00;5028089;28;45391;-80
2021/12/21 09:49:35;;;;;;;;;26.25;21.75;;;;;19.81;29.72;101694.47;5041930;28;46988;-76
2021/12/21 09:52:01;;;;;;;;;22.00;21.25;;;;;20.26;28.89;101694.66;5023134;28;45389;-77
2021/12/21 09:54:27;;;;;;;;;24.50;23.75;;;;;20.31;28.80;101687.44;5024200;28;45817;-76
2021/12/21 09:56:53;;;;;;;;;25.25;23.25;;;;;21.16;27.38;101708.13;5025384;28;45402;-77
2021/12/21 09:59:18;;;;;;;;;25.75;24.25;;;;;21.08;26.96;101662.75;5023518;28;46737;-77
2021/12/21 10:01:45;;;;;;;;;24.75;23.25;;;;;19.61;27.92;101696.59;5025816;28;45465;-77
2021/12/21 10:04:10;;;;;;;;;24.25;24.25;;;;;18.75;30.57;101704.78;5020830;28;45452;-77
2021/12/21 10:06:48;;;;;;;;;30.00;25.00;;;;;20.05;28.70;101703.03;5025672;28;45502;-75
2021/12/21 10:09:15;;;;;;;;;23.50;21.50;;;;;20.84;27.24;101693.59;5024376;28;45528;-79
2021/12/21 10:11:47;;;;;;;;;24.25;23.00;;;;;18.78;29.06;101700.28;5018435;28;45422;-78
2021/12/21 10:14:12;;;;;;;;;26.75;24.75;;;;;16.87;31.49;101689.19;5018480;28;45344;-77
2021/12/21 10:16:38;;;;;;;;;20.25;19.50;;;;;17.91;31.49;101710.84;5018583;28;45524;-78
2021/12/21 10:19:07;;;;;;;;;28.50;24.00;;;;;19.78;28.84;101723.97;5018724;28;45351;-78
2021/12/21 10:21:42;;;;;;;;;20.50;18.25;;;;;21.08;26.83;101734.22;5018193;28;45490;-78
2021/12/21 10:24:08;;;;;;;;;22.75;22.50;;;;;22.06;26.06;101738.31;5007013;28;45491;-77
2021/12/21 10:26:34;;;;;;;;;24.75;21.75;;;;;22.41;25.35;101732.06;5018783;28;46795;-76
2021/12/21 10:29:05;;;;;;;;;28.00;22.75;;;;;22.59;24.74;101742.34;5026234;28;46160;-76
2021/12/21 10:31:39;;;;;;;;;28.00;24.00;;;;;22.78;24.64;101750.78;5019897;28;45438;-78
2021/12/21 10:34:18;;;;;;;;;26.50;26.50;;;;;23.09;24.06;101768.81;5018054;28;45477;-77
2021/12/21 10:36:45;;;;;;;;;25.50;25.00;;;;;22.63;23.97;101756.59;5019074;28;45450;-78
2021/12/21 10:39:23;;;;;;;;;23.33;21.00;;;;;21.19;24.98;101716.09;5018203;28;46313;-77
2021/12/21 10:41:48;;;;;;;;;22.00;21.00;;;;;18.65;28.38;101636.38;5018709;28;45460;-78
2021/12/21 10:44:16;;;;;;;;;27.50;23.50;;;;;16.94;30.87;101680.28;5019094;28;45249;-76
2021/12/21 10:46:45;;;;;;;;;29.00;23.75;;;;;15.75;32.53;101683.94;5052461;28;45372;-75
2021/12/21 10:49:11;;;;;;;;;26.50;23.25;;;;;14.87;34.40;101694.22;5056441;28;46445;-76
2021/12/21 10:51:54;;;;;;;;;20.00;18.50;;;;;15.19;34.47;101774.00;5068738;28;45241;-77
2021/12/21 10:54:34;;;;;;;;;27.25;24.25;;;;;17.08;32.10;101875.44;5066678;28;45247;-77
2021/12/21 10:57:02;;;;;;;;;23.25;22.00;;;;;18.52;29.57;101771.72;5059029;28;45310;-77
2021/12/21 10:59:32;;;;;;;;;28.00;22.75;;;;;19.21;27.51;101707.78;5058338;28;46095;-77
2021/12/21 11:02:12;;;;;;;;;24.00;21.25;;;;;18.33;28.67;101685.59;5057982;28;45395;-77
2021/12/21 11:04:40;;;;;;;;;23.00;22.00;;;;;16.64;31.13;101670.56;5058517;28;45817;-77
2021/12/21 11:07:53;;;;;;;;;26.50;22.25;;;;;15.81;33.11;101677.72;5058670;28;45480;-77
2021/12/21 11:10:12;;;;;;;;;31.25;20.00;;;;;15.08;34.03;101694.34;5056091;28;45360;-77
2021/12/21 11:12:46;;;;;;;;;18.75;18.00;;;;;14.62;35.03;101694.09;5058516;28;45476;-77
2021/12/21 11:15:15;;;;;;;;;24.75;20.50;;;;;14.30;35.77;101680.59;5058386;28;45342;-77
2021/12/21 11:17:44;;;;;;;;;22.25;20.25;;;;;13.97;35.90;101686.53;5058255;28;45419;-77
2021/12/21 11:20:11;;;;;;;;;21.25;19.25;;;;;13.69;37.36;101677.44;5040216;28;48369;-77
2021/12/21 11:22:41;;;;;;;;;22.25;20.75;;;;;13.22;37.10;101669.88;5058311;28;45323;-77
2021/12/21 11:25:09;;;;;;;;;28.00;22.75;;;;;12.75;37.59;101642.78;5058031;28;45511;-77
2021/12/21 11:27:37;;;;;;;;;24.25;19.75;;;;;12.88;38.57;101697.63;5058480;28;45278;-76
2021/12/21 11:30:07;;;;;;;;;27.25;24.25;;;;;12.52;38.72;101677.75;5057984;28;45207;-77
2021/12/21 11:32:39;;;;;;;;;19.50;17.50;;;;;12.12;40.37;101684.19;5057854;28;45283;-77
2021/12/21 11:37:37;;;;;;;;;31.75;24.50;;;;;11.73;41.11;101673.81;5058317;28;45433;-77
2021/12/21 11:40:04;;;;;;;;;26.50;23.75;;;;;11.54;40.70;101664.69;5057744;28;46636;-77
2021/12/21 11:42:51;;;;;;;;;24.50;24.25;;;;;11.39;41.52;101667.91;5058045;28;45286;-77
2021/12/21 11:45:37;;;;;;;;;19.00;17.50;;;;;11.31;41.23;101671.25;5057835;28;45533;-77
2021/12/21 11:48:17;;;;;;;;;30.50;27.25;;;;;11.09;41.78;101665.56;5058129;28;45466;-77
2021/12/21 11:50:48;;;;;;;;;34.75;25.50;;;;;10.98;42.81;101660.91;5057595;28;45522;-77
2021/12/21 11:53:17;;;;;;;;;31.25;27.75;;;;;10.78;42.41;101666.66;5039678;28;45442;-77
2021/12/21 11:55:46;;;;;;;;;25.50;24.75;;;;;10.57;42.29;101627.56;5058038;28;45456;-77
2021/12/21 11:58:22;;;;;;;;;29.25;25.75;;;;;10.74;43.01;101637.59;5057592;28;45506;-77
2021/12/21 12:00:56;;;;;;;;;25.25;23.50;;;;;10.84;43.12;101658.91;5056447;28;46777;-77
2021/12/21 12:03:24;;;;;;;;;25.00;23.25;;;;;10.59;43.27;101609.16;5057820;28;45265;-77
2021/12/21 12:06:02;;;;;;;;;27.50;21.00;;;;;10.83;43.48;101651.84;5057405;28;45420;-77
2021/12/21 12:08:41;;;;;;;;;25.75;24.75;;;;;10.82;42.93;101626.34;5057906;28;45540;-77
2021/12/21 12:11:07;;;;;;;;;24.50;21.50;;;;;10.94;42.34;101649.44;5057451;28;46219;-77
2021/12/21 12:13:37;;;;;;;;;26.25;23.50;;;;;10.67;42.76;101625.13;5056997;28;45338;-77
2021/12/21 12:16:11;;;;;;;;;27.75;27.00;;;;;10.53;42.70;101628.38;5057292;28;45438;-77
2021/12/21 12:18:45;;;;;;;;;25.00;23.75;;;;;10.49;43.87;101628.25;5039253;28;45551;-77
2021/12/21 12:21:22;;;;;;;;;39.25;28.00;;;;;10.45;43.33;101640.47;5056910;28;46429;-77
2021/12/21 12:23:51;;;;;;;;;27.00;23.25;;;;;10.38;43.65;101628.03;5056882;28;45247;-77
2021/12/21 12:26:29;;;;;;;;;26.00;22.00;;;;;10.17;44.01;101593.28;5057356;28;45426;-77
2021/12/21 12:29:17;;;;;;;;;30.25;25.50;;;;;10.38;44.16;101630.66;5057854;28;45365;-77
2021/12/21 12:31:50;;;;;;;;;25.75;24.00;;;;;10.39;44.13;101623.66;5056891;28;45557;-77
2021/12/21 12:34:28;;;;;;;;;27.75;27.75;;;;;10.36;44.62;101628.84;5057548;28;45219;-77
2021/12/21 12:36:55;;;;;;;;;15.00;11.50;;;;;10.31;44.11;101619.94;5056718;28;45385;-77
2021/12/21 12:39:43;;;;;;;;;26.00;23.75;;;;;10.39;44.12;101623.66;5057255;28;45305;-77
2021/12/21 12:42:12;;;;;;;;;29.25;25.25;;;;;10.24;44.62;101616.31;5057083;28;46129;-77